South Wallingford, Vermont
Current Conditions -  °F | °C
As of 7:35 PM on Monday 24 Nov 2014 (Local Time) from KRUT Reporting Station
Clear Clear  
Wind Chill: 64°   Ceiling: Unl
Heat Index: 64°   Visibility: 10mi
Dew Point: 48°   Wind: 14mph
Humidity: 56%   Direction: 200°SSW
Pressure: 29.5"   Gusts: 21mph
Location:  43.4377°N, 73.0014°W
Report Text: KRUT 250035Z 20012G18KT 180V240 10SM CLR 18/09 A2950 RMK AO1
Loading
Personal Weather Stations






























Interactive Weather Map New forecast layout! Learn more

10-Day Weather Forecast

Advertisements
Track Severe Weather on mobile